createdAt,value
2022-09-23T00:01:23.635Z,8.70
2022-09-23T00:04:25.908Z,9.53
2022-09-23T00:07:27.705Z,7.57
2022-09-23T00:10:32.895Z,8.45
2022-09-23T00:13:36.366Z,8.35
2022-09-23T00:16:38.333Z,9.52
2022-09-23T00:19:40.439Z,9.17
2022-09-23T00:22:42.278Z,9.85
2022-09-23T00:25:44.165Z,8.73
2022-09-23T00:28:46.697Z,8.60
2022-09-23T00:31:48.451Z,8.52
2022-09-23T00:34:51.554Z,9.48
2022-09-23T00:37:53.345Z,8.23
2022-09-23T00:40:55.231Z,8.50
2022-09-23T00:43:59.612Z,7.23
2022-09-23T00:47:01.580Z,8.90
2022-09-23T00:50:14.091Z,8.10
2022-09-23T00:53:21.181Z,10.40
2022-09-23T00:56:24.411Z,7.93
2022-09-23T00:59:29.064Z,8.27
2022-09-23T01:02:31.682Z,9.25
2022-09-23T01:05:34.410Z,9.25
2022-09-23T01:08:36.437Z,8.90
2022-09-23T01:11:40.983Z,10.55
2022-09-23T01:15:06.679Z,7.85
2022-09-23T01:18:32.771Z,9.23
2022-09-23T01:21:48.409Z,8.77
2022-09-23T01:25:16.414Z,10.15
2022-09-23T01:28:54.556Z,8.52
2022-09-23T01:32:15.165Z,8.88
2022-09-23T01:35:25.913Z,11.13
2022-09-23T01:38:46.594Z,10.25
2022-09-23T01:41:57.444Z,11.20
2022-09-23T01:45:10.997Z,11.98
2022-09-23T01:48:18.877Z,11.40
2022-09-23T01:51:23.873Z,10.80
2022-09-23T01:54:34.301Z,11.00
2022-09-23T01:57:53.420Z,10.00
2022-09-23T02:01:01.184Z,9.10
2022-09-23T02:04:31.014Z,9.23
2022-09-23T02:07:42.515Z,9.95
2022-09-23T02:10:49.185Z,8.57
2022-09-23T02:14:07.012Z,10.20
2022-09-23T02:17:13.831Z,8.60
2022-09-23T02:20:22.162Z,8.98
2022-09-23T02:23:26.675Z,9.10
2022-09-23T02:26:38.646Z,9.48
2022-09-23T02:29:49.418Z,8.85
2022-09-23T02:33:24.608Z,11.68
2022-09-23T02:36:46.020Z,11.85
2022-09-23T02:40:09.097Z,9.18
2022-09-23T02:43:19.898Z,10.48
2022-09-23T02:46:23.242Z,11.15
2022-09-23T02:49:28.245Z,10.38
2022-09-23T02:52:30.090Z,9.20
2022-09-23T02:55:32.428Z,9.32
2022-09-23T02:58:34.633Z,10.05
2022-09-23T03:02:01.215Z,9.18
2022-09-23T03:05:30.290Z,11.20
2022-09-23T03:08:51.186Z,12.57
2022-09-23T03:12:15.849Z,12.18
2022-09-23T03:15:23.342Z,11.80
2022-09-23T03:18:46.642Z,10.40
2022-09-23T03:25:07.168Z,9.63
2022-09-23T03:28:09.987Z,8.82
2022-09-23T03:34:22.842Z,7.72
2022-09-23T03:37:36.021Z,8.05
2022-09-23T03:40:44.085Z,9.55
2022-09-23T03:43:46.432Z,8.38
2022-09-23T03:46:51.158Z,8.35
2022-09-23T03:49:54.058Z,12.27
2022-09-23T03:55:57.535Z,8.82
2022-09-23T03:58:59.402Z,10.18
2022-09-23T04:02:02.644Z,9.38
2022-09-23T04:05:05.274Z,8.23
2022-09-23T04:08:07.117Z,7.97
2022-09-23T04:11:08.959Z,8.23
2022-09-23T04:14:12.240Z,8.60
2022-09-23T04:17:14.260Z,7.53
2022-09-23T04:20:17.339Z,8.00
2022-09-23T04:23:19.188Z,9.50
2022-09-23T04:26:21.002Z,7.57
2022-09-23T04:29:24.213Z,7.72
2022-09-23T04:32:26.138Z,9.23
2022-09-23T04:35:27.967Z,8.87
2022-09-23T04:38:29.733Z,8.77
2022-09-23T04:41:31.809Z,8.27
2022-09-23T04:44:34.889Z,9.52
2022-09-23T04:47:37.398Z,10.32
2022-09-23T04:50:39.433Z,9.52
2022-09-23T04:53:43.432Z,11.00
2022-09-23T04:56:45.230Z,7.90
2022-09-23T04:59:47.335Z,9.95
2022-09-23T05:02:50.586Z,7.75
2022-09-23T05:05:53.009Z,8.32
2022-09-23T05:08:56.244Z,8.02
2022-09-23T05:11:58.358Z,8.90
2022-09-23T05:15:00.671Z,7.85
2022-09-23T05:18:02.620Z,8.18
2022-09-23T05:21:04.688Z,10.23
2022-09-23T05:24:07.475Z,8.73
2022-09-23T05:27:09.394Z,8.23
2022-09-23T05:30:11.793Z,8.67
2022-09-23T05:33:14.213Z,9.27
2022-09-23T05:39:21.851Z,8.68
2022-09-23T05:42:24.173Z,8.68
2022-09-23T05:45:27.390Z,9.00
2022-09-23T05:48:34.141Z,9.60
2022-09-23T05:51:35.989Z,9.98
2022-09-23T05:54:39.716Z,9.73
2022-09-23T05:57:41.455Z,9.75
2022-09-23T06:00:44.207Z,8.85
2022-09-23T06:03:49.875Z,7.60
2022-09-23T06:06:51.645Z,8.80
2022-09-23T06:09:54.285Z,9.80
2022-09-23T06:12:56.162Z,8.07
2022-09-23T06:15:58.319Z,9.93
2022-09-23T06:19:06.217Z,9.20
2022-09-23T06:22:10.888Z,8.70
2022-09-23T06:25:13.040Z,8.60
2022-09-23T06:28:15.712Z,8.80
2022-09-23T06:31:17.917Z,9.68
2022-09-23T06:34:21.132Z,10.13
2022-09-23T06:37:24.283Z,9.68
2022-09-23T06:40:26.718Z,10.30
2022-09-23T06:43:29.213Z,8.93
2022-09-23T06:46:31.871Z,8.85
2022-09-23T06:52:35.768Z,10.18
2022-09-23T06:55:37.712Z,9.35
2022-09-23T06:58:40.507Z,8.87
2022-09-23T07:04:44.862Z,8.93
2022-09-23T07:07:46.584Z,9.03
2022-09-23T07:10:53.841Z,9.32
2022-09-23T07:13:57.247Z,9.60
2022-09-23T07:16:59.985Z,11.27
2022-09-23T07:20:02.193Z,14.52
2022-09-23T07:23:04.839Z,12.13
2022-09-23T07:26:08.770Z,43.38
2022-09-23T07:29:13.179Z,18.83
2022-09-23T07:32:15.997Z,14.48
2022-09-23T07:41:26.041Z,11.68
2022-09-23T07:44:29.237Z,13.60
2022-09-23T07:47:31.600Z,15.52
2022-09-23T07:50:33.844Z,16.85
2022-09-23T07:53:37.076Z,14.95
2022-09-23T07:56:41.843Z,18.58
2022-09-23T07:59:44.193Z,13.43
2022-09-23T08:02:49.588Z,12.50
2022-09-23T08:05:54.644Z,15.70
2022-09-23T08:09:00.812Z,13.93
2022-09-23T08:12:03.598Z,12.55
2022-09-23T08:15:06.136Z,13.27
2022-09-23T08:18:09.962Z,13.23
2022-09-23T08:21:12.693Z,11.43
2022-09-23T08:24:17.790Z,12.18
2022-09-23T08:27:19.937Z,12.52
2022-09-23T08:30:22.070Z,12.48
2022-09-23T08:33:24.529Z,12.30
2022-09-23T08:36:27.529Z,12.57
2022-09-23T08:39:29.332Z,11.77
2022-09-23T08:42:35.880Z,10.25
2022-09-23T08:45:40.539Z,11.50
2022-09-23T08:48:47.623Z,11.43
2022-09-23T08:51:51.330Z,11.65
2022-09-23T08:54:55.669Z,10.00
2022-09-23T08:58:25.899Z,10.80
2022-09-23T09:01:48.235Z,9.35
2022-09-23T09:05:06.094Z,9.45
2022-09-23T09:08:11.840Z,10.25
2022-09-23T09:11:16.805Z,8.02
2022-09-23T09:14:28.854Z,9.52
2022-09-23T09:17:44.382Z,10.10
2022-09-23T09:21:11.633Z,9.68
2022-09-23T09:24:33.842Z,10.75
2022-09-23T09:27:40.731Z,9.90
2022-09-23T09:30:48.315Z,8.75
2022-09-23T09:34:06.303Z,9.07
2022-09-23T09:37:18.221Z,8.93
2022-09-23T09:40:21.288Z,10.50
2022-09-23T09:43:25.530Z,8.07
2022-09-23T09:46:47.321Z,8.98
2022-09-23T09:50:14.202Z,9.68
2022-09-23T09:53:27.806Z,9.20
2022-09-23T09:56:34.994Z,8.85
2022-09-23T09:59:42.075Z,11.05
2022-09-23T10:02:47.815Z,9.10
2022-09-23T10:05:53.849Z,8.95
2022-09-23T10:09:10.629Z,9.88
2022-09-23T10:12:18.525Z,11.13
2022-09-23T10:15:44.462Z,11.07
2022-09-23T10:18:46.876Z,10.40
2022-09-23T10:21:57.010Z,11.60
2022-09-23T10:25:03.760Z,10.05
2022-09-23T10:28:41.726Z,9.60
2022-09-23T10:31:45.457Z,10.13
2022-09-23T10:34:52.397Z,13.43
2022-09-23T10:38:00.392Z,11.73
2022-09-23T10:41:21.223Z,12.25
2022-09-23T10:45:12.286Z,12.07
2022-09-23T10:48:36.329Z,11.55
2022-09-23T10:52:04.722Z,11.13
2022-09-23T10:55:42.901Z,12.15
2022-09-23T10:59:22.357Z,11.82
2022-09-23T11:02:50.510Z,8.85
2022-09-23T11:05:55.238Z,11.55
2022-09-23T11:09:23.266Z,7.43
2022-09-23T11:12:32.007Z,10.07
2022-09-23T11:15:52.530Z,9.10
2022-09-23T11:19:16.005Z,9.65
2022-09-23T11:22:36.236Z,8.52
2022-09-23T11:26:23.740Z,9.25
2022-09-23T11:29:36.503Z,10.23
2022-09-23T11:33:04.790Z,9.40
2022-09-23T11:36:10.675Z,9.27
2022-09-23T11:39:23.989Z,7.88
2022-09-23T11:42:31.582Z,6.65
2022-09-23T11:45:41.982Z,7.68
2022-09-23T11:48:57.862Z,6.43
2022-09-23T11:52:08.860Z,7.35
2022-09-23T11:55:31.932Z,8.02
2022-09-23T11:58:50.014Z,5.90
2022-09-23T12:02:15.781Z,6.20
2022-09-23T12:05:26.882Z,5.85
2022-09-23T12:08:34.475Z,5.80
2022-09-23T12:11:50.579Z,5.40
2022-09-23T12:15:14.318Z,6.32
2022-09-23T12:19:08.536Z,5.70
2022-09-23T12:22:30.889Z,5.85
2022-09-23T12:25:47.264Z,4.90
2022-09-23T12:28:59.228Z,5.28
2022-09-23T12:32:09.882Z,5.07
2022-09-23T12:35:24.101Z,5.32
2022-09-23T12:38:35.197Z,5.45
2022-09-23T12:41:41.430Z,7.25
2022-09-23T12:44:55.130Z,6.00
2022-09-23T12:48:19.668Z,5.68
2022-09-23T12:51:44.729Z,4.97
2022-09-23T12:54:50.132Z,5.03
2022-09-23T12:57:52.046Z,5.72
2022-09-23T13:01:10.383Z,9.57
2022-09-23T13:04:55.042Z,6.95
2022-09-23T13:08:17.755Z,5.00
2022-09-23T13:11:28.041Z,5.35
2022-09-23T13:14:35.711Z,5.93
2022-09-23T13:17:40.006Z,5.47
2022-09-23T13:20:43.168Z,7.63
2022-09-23T13:24:12.851Z,4.18
2022-09-23T13:27:26.669Z,5.93
2022-09-23T13:30:28.893Z,5.88
2022-09-23T13:33:48.324Z,4.93
2022-09-23T13:36:50.400Z,6.40
2022-09-23T13:40:07.901Z,5.18
2022-09-23T13:43:22.131Z,5.45
2022-09-23T13:46:28.117Z,5.50
2022-09-23T13:49:34.123Z,9.05
2022-09-23T13:52:36.287Z,10.00
2022-09-23T13:55:39.595Z,10.50
2022-09-23T13:58:43.484Z,12.00
2022-09-23T14:01:47.051Z,44.70
2022-09-23T14:04:49.608Z,70.65
2022-09-23T14:07:52.836Z,21.67
2022-09-23T14:10:55.942Z,18.23
2022-09-23T14:14:00.059Z,17.60
2022-09-23T14:17:02.601Z,26.27
2022-09-23T14:20:05.629Z,15.30
2022-09-23T14:23:12.070Z,11.68
2022-09-23T14:26:14.844Z,13.45
2022-09-23T14:32:27.126Z,7.57
2022-09-23T14:35:42.896Z,8.43
2022-09-23T14:38:50.775Z,14.50
2022-09-23T14:41:52.945Z,18.23
2022-09-23T14:44:56.432Z,10.32
2022-09-23T14:48:22.793Z,11.07
2022-09-23T14:51:47.434Z,12.07
2022-09-23T14:54:52.117Z,32.00
2022-09-23T14:58:12.402Z,109.70
2022-09-23T15:01:29.522Z,28.52
2022-09-23T15:04:33.356Z,24.55
2022-09-23T15:07:38.094Z,23.27
2022-09-23T15:10:42.816Z,20.60
2022-09-23T15:13:49.707Z,103.10
2022-09-23T15:16:53.145Z,103.18
2022-09-23T15:19:59.874Z,35.72
2022-09-23T15:23:01.887Z,26.40
2022-09-23T15:26:12.810Z,20.27
2022-09-23T15:29:17.816Z,14.55
2022-09-23T15:32:22.525Z,23.45
2022-09-23T15:35:27.189Z,14.23
2022-09-23T15:38:32.439Z,14.48
2022-09-23T15:41:34.552Z,15.57
2022-09-23T15:44:40.003Z,14.88
2022-09-23T15:47:44.395Z,15.52
2022-09-23T15:50:49.702Z,34.85
2022-09-23T15:53:52.849Z,22.77
2022-09-23T15:56:56.326Z,20.90
2022-09-23T16:00:01.694Z,44.17
2022-09-23T16:03:31.964Z,24.48
2022-09-23T16:06:36.262Z,32.95
2022-09-23T16:09:40.226Z,27.33
2022-09-23T16:12:44.806Z,43.92
2022-09-23T16:15:47.560Z,82.28
2022-09-23T16:18:52.291Z,122.25
2022-09-23T16:21:55.824Z,65.72
2022-09-23T16:24:58.118Z,36.50
2022-09-23T16:28:00.343Z,38.83
2022-09-23T16:31:04.828Z,34.13
2022-09-23T16:34:09.695Z,31.95
2022-09-23T16:37:20.615Z,29.80
2022-09-23T16:40:24.957Z,30.33
2022-09-23T16:43:32.845Z,29.33
2022-09-23T16:46:36.702Z,33.15
2022-09-23T16:49:39.924Z,56.03
2022-09-23T16:52:42.431Z,57.53
2022-09-23T16:55:47.330Z,38.38
2022-09-23T16:58:53.852Z,46.83
2022-09-23T17:02:15.804Z,50.80
2022-09-23T17:05:19.877Z,57.05
2022-09-23T17:08:23.369Z,40.65
2022-09-23T17:11:25.231Z,41.20
2022-09-23T17:14:31.199Z,61.85
2022-09-23T17:17:39.727Z,75.45
2022-09-23T17:20:43.775Z,54.08
2022-09-23T17:23:47.246Z,64.78
2022-09-23T17:26:52.764Z,76.67
2022-09-23T17:29:56.014Z,87.15
2022-09-23T17:32:58.047Z,104.65
2022-09-23T17:36:10.150Z,125.30
2022-09-23T17:39:12.860Z,142.48
2022-09-23T17:42:15.918Z,146.07
2022-09-23T17:45:23.060Z,136.35
2022-09-23T17:48:28.374Z,109.05
2022-09-23T17:51:31.388Z,91.03
2022-09-23T17:54:36.740Z,191.68
2022-09-23T17:57:39.862Z,131.23
2022-09-23T18:00:51.323Z,115.22
2022-09-23T18:04:00.153Z,105.22
2022-09-23T18:07:13.696Z,93.90
2022-09-23T18:10:18.513Z,88.80
2022-09-23T18:13:23.827Z,99.00
2022-09-23T18:19:54.291Z,92.25
2022-09-23T18:23:05.304Z,76.90
2022-09-23T18:26:15.112Z,86.00
2022-09-23T18:29:23.714Z,72.95
2022-09-23T18:32:29.526Z,83.20
2022-09-23T18:35:33.754Z,78.95
2022-09-23T18:38:40.852Z,56.30
2022-09-23T18:41:43.771Z,48.92
2022-09-23T18:44:46.415Z,55.92
2022-09-23T18:48:11.360Z,57.50
2022-09-23T18:51:25.881Z,54.90
2022-09-23T18:54:29.501Z,43.38
2022-09-23T18:57:32.522Z,40.10
2022-09-23T19:00:36.134Z,33.45
2022-09-23T19:03:38.616Z,32.53
2022-09-23T19:06:42.708Z,30.33
2022-09-23T19:09:46.710Z,37.67
2022-09-23T19:12:49.334Z,49.17
2022-09-23T19:15:51.517Z,46.10
2022-09-23T19:18:55.215Z,43.45
2022-09-23T19:22:01.484Z,36.80
2022-09-23T19:25:07.159Z,38.22
2022-09-23T19:28:11.888Z,48.00
2022-09-23T19:31:17.461Z,47.78
2022-09-23T19:34:25.736Z,47.83
2022-09-23T19:37:29.098Z,47.38
2022-09-23T19:40:32.378Z,35.78
2022-09-23T19:43:37.631Z,30.13
2022-09-23T19:46:44.607Z,31.08
2022-09-23T19:49:48.735Z,40.30
2022-09-23T19:52:53.897Z,33.78
2022-09-23T19:55:56.462Z,33.30
2022-09-23T19:58:59.572Z,37.03
2022-09-23T20:02:01.599Z,33.38
2022-09-23T20:05:03.741Z,38.30
2022-09-23T20:08:05.731Z,42.80
2022-09-23T20:11:28.091Z,51.53
2022-09-23T20:14:31.318Z,42.33
2022-09-23T20:20:34.909Z,45.40
2022-09-23T20:23:36.927Z,32.85
2022-09-23T20:26:57.214Z,42.40
2022-09-23T20:30:00.471Z,43.63
2022-09-23T20:33:02.282Z,38.97
2022-09-23T20:36:05.559Z,38.22
2022-09-23T20:39:07.643Z,36.90
2022-09-23T20:42:09.405Z,31.67
2022-09-23T20:45:11.319Z,34.88
2022-09-23T20:48:13.163Z,32.17
2022-09-23T20:51:15.445Z,30.70
2022-09-23T20:54:20.416Z,31.75
2022-09-23T20:57:22.289Z,30.83
2022-09-23T21:00:24.117Z,27.00
2022-09-23T21:03:29.302Z,23.17
2022-09-23T21:06:31.226Z,23.33
2022-09-23T21:09:33.010Z,22.95
2022-09-23T21:12:35.253Z,19.65
2022-09-23T21:15:37.134Z,23.55
2022-09-23T21:18:39.123Z,20.73
2022-09-23T21:21:40.916Z,18.80
2022-09-23T21:25:25.867Z,15.48
2022-09-23T21:28:04.595Z,16.42
2022-09-23T21:31:08.816Z,14.80
2022-09-23T21:34:11.453Z,15.20
2022-09-23T21:37:13.343Z,11.77
2022-09-23T21:40:33.916Z,14.15
2022-09-23T21:43:38.559Z,12.90
2022-09-23T21:46:40.325Z,11.70
2022-09-23T21:49:44.835Z,11.93
2022-09-23T21:52:51.799Z,13.68
2022-09-23T21:55:54.127Z,11.68
2022-09-23T21:58:58.344Z,11.32
2022-09-23T22:02:00.176Z,11.75
2022-09-23T22:05:01.963Z,11.55
2022-09-23T22:08:03.852Z,10.45
2022-09-23T22:11:33.558Z,9.90
2022-09-23T22:14:36.183Z,11.82
2022-09-23T22:17:40.231Z,10.32
2022-09-23T22:20:43.626Z,9.88
2022-09-23T22:23:46.451Z,10.32
2022-09-23T22:26:48.314Z,9.82
2022-09-23T22:30:08.707Z,8.45
2022-09-23T22:33:10.462Z,8.90
2022-09-23T22:36:12.894Z,8.55
2022-09-23T22:39:14.849Z,7.10
2022-09-23T22:42:16.658Z,8.23
2022-09-23T22:45:18.462Z,8.63
2022-09-23T22:48:21.075Z,7.75
2022-09-23T22:51:22.887Z,8.13
2022-09-23T22:54:29.112Z,6.63
2022-09-23T22:57:34.684Z,6.65
2022-09-23T23:00:38.668Z,7.63
2022-09-23T23:03:41.774Z,7.78
2022-09-23T23:06:43.670Z,7.22
2022-09-23T23:09:45.429Z,9.10
2022-09-23T23:12:47.441Z,7.30
2022-09-23T23:15:49.421Z,7.27
2022-09-23T23:18:51.185Z,8.40
2022-09-23T23:21:53.051Z,8.10
2022-09-23T23:24:55.080Z,8.10
2022-09-23T23:27:57.929Z,8.53
2022-09-23T23:34:07.180Z,7.18
2022-09-23T23:37:09.560Z,8.05
2022-09-23T23:40:11.428Z,9.77
2022-09-23T23:43:13.462Z,7.68
2022-09-23T23:46:15.792Z,7.73
2022-09-23T23:49:17.599Z,7.78
2022-09-23T23:52:19.322Z,7.25
2022-09-23T23:55:21.127Z,7.00
2022-09-23T23:58:22.944Z,6.32
